createdAt,value
2022-08-03T00:01:53.869Z,4.80
2022-08-03T00:04:20.853Z,4.72
2022-08-03T00:06:47.786Z,3.75
2022-08-03T00:09:14.787Z,5.28
2022-08-03T00:11:41.771Z,5.93
2022-08-03T00:14:08.903Z,3.45
2022-08-03T00:16:36.031Z,5.05
2022-08-03T00:19:03.359Z,2.90
2022-08-03T00:21:30.437Z,9.55
2022-08-03T00:23:57.417Z,1.98
2022-08-03T00:26:24.371Z,4.63
2022-08-03T00:28:51.354Z,2.92
2022-08-03T00:31:23.136Z,3.78
2022-08-03T00:34:06.153Z,3.50
2022-08-03T00:36:33.933Z,7.57
2022-08-03T00:39:00.975Z,11.13
2022-08-03T00:41:28.017Z,6.78
2022-08-03T00:43:54.964Z,3.60
2022-08-03T00:46:22.563Z,2.95
2022-08-03T00:48:50.215Z,6.88
2022-08-03T00:51:18.108Z,3.92
2022-08-03T00:53:46.065Z,3.42
2022-08-03T00:56:17.275Z,2.75
2022-08-03T00:58:45.911Z,3.13
2022-08-03T01:01:14.209Z,4.60
2022-08-03T01:03:41.635Z,3.45
2022-08-03T01:06:18.431Z,7.38
2022-08-03T01:09:09.430Z,3.95
2022-08-03T01:12:00.037Z,2.20
2022-08-03T01:15:02.924Z,3.80
2022-08-03T01:17:49.355Z,5.28
2022-08-03T01:20:17.213Z,4.82
2022-08-03T01:23:38.715Z,3.42
2022-08-03T01:26:42.450Z,3.00
2022-08-03T01:29:23.505Z,7.68
2022-08-03T01:32:53.493Z,3.38
2022-08-03T01:34:55.835Z,9.45
2022-08-03T01:37:31.226Z,4.40
2022-08-03T01:40:01.056Z,3.22
2022-08-03T01:42:29.584Z,3.53
2022-08-03T01:44:59.036Z,3.47
2022-08-03T01:47:27.701Z,7.90
2022-08-03T01:49:57.666Z,5.80
2022-08-03T01:52:26.278Z,10.30
2022-08-03T01:54:54.625Z,5.95
2022-08-03T01:57:24.099Z,6.03
2022-08-03T01:59:52.279Z,7.32
2022-08-03T02:02:32.832Z,7.55
2022-08-03T02:05:03.342Z,2.63
2022-08-03T02:07:32.106Z,5.97
2022-08-03T02:10:01.143Z,2.67
2022-08-03T02:12:29.976Z,4.55
2022-08-03T02:14:57.857Z,4.43
2022-08-03T02:17:39.057Z,6.28
2022-08-03T02:20:11.102Z,3.50
2022-08-03T02:22:41.289Z,2.42
2022-08-03T02:25:11.783Z,6.30
2022-08-03T02:28:11.491Z,5.35
2022-08-03T02:30:40.964Z,9.27
2022-08-03T02:33:13.842Z,3.35
2022-08-03T02:35:42.834Z,5.28
2022-08-03T02:38:13.462Z,4.05
2022-08-03T02:40:43.314Z,8.43
2022-08-03T02:43:16.533Z,5.80
2022-08-03T02:45:46.741Z,4.35
2022-08-03T02:48:18.283Z,9.90
2022-08-03T02:50:47.110Z,4.38
2022-08-03T02:53:16.072Z,8.45
2022-08-03T02:55:45.807Z,3.97
2022-08-03T02:58:14.477Z,3.85
2022-08-03T03:00:44.123Z,6.90
2022-08-03T03:03:12.130Z,9.48
2022-08-03T03:05:56.074Z,3.58
2022-08-03T03:08:28.844Z,5.50
2022-08-03T03:10:58.791Z,3.15
2022-08-03T03:13:29.298Z,2.58
2022-08-03T03:15:59.684Z,3.75
2022-08-03T03:18:28.996Z,8.00
2022-08-03T03:20:57.741Z,2.83
2022-08-03T03:23:26.264Z,5.03
2022-08-03T03:25:55.960Z,4.30
2022-08-03T03:28:24.427Z,5.38
2022-08-03T03:30:53.440Z,3.58
2022-08-03T03:33:24.669Z,4.55
2022-08-03T03:35:52.025Z,3.00
2022-08-03T03:38:19.878Z,5.38
2022-08-03T03:40:47.077Z,4.00
2022-08-03T03:43:14.390Z,2.40
2022-08-03T03:45:43.006Z,6.25
2022-08-03T03:48:10.415Z,3.85
2022-08-03T03:50:40.918Z,3.10
2022-08-03T03:53:12.677Z,10.63
2022-08-03T03:55:59.421Z,3.78
2022-08-03T03:58:27.247Z,1.50
2022-08-03T04:00:54.348Z,9.18
2022-08-03T04:03:21.387Z,8.02
2022-08-03T04:06:06.847Z,10.05
2022-08-03T04:08:52.298Z,3.90
2022-08-03T04:11:43.887Z,3.17
2022-08-03T04:14:22.756Z,3.50
2022-08-03T04:16:54.971Z,2.97
2022-08-03T04:19:35.732Z,2.65
2022-08-03T04:22:09.209Z,4.22
2022-08-03T04:24:44.815Z,7.55
2022-08-03T04:27:14.576Z,4.10
2022-08-03T04:29:49.385Z,7.05
2022-08-03T04:32:18.106Z,6.90
2022-08-03T04:34:45.928Z,3.55
2022-08-03T04:37:25.408Z,5.97
2022-08-03T04:39:54.558Z,2.67
2022-08-03T04:42:25.834Z,5.07
2022-08-03T04:44:57.704Z,9.00
2022-08-03T04:47:28.287Z,8.73
2022-08-03T04:49:55.799Z,5.20
2022-08-03T04:52:22.905Z,6.80
2022-08-03T04:54:50.968Z,11.48
2022-08-03T04:57:23.126Z,9.38
2022-08-03T05:00:01.428Z,5.70
2022-08-03T05:02:31.170Z,7.53
2022-08-03T05:04:58.581Z,8.00
2022-08-03T05:07:25.682Z,8.65
2022-08-03T05:10:01.664Z,15.98
2022-08-03T05:12:33.557Z,11.35
2022-08-03T05:15:01.793Z,7.80
2022-08-03T05:17:29.037Z,12.73
2022-08-03T05:19:56.664Z,10.57
2022-08-03T05:22:24.034Z,14.88
2022-08-03T05:24:51.338Z,10.30
2022-08-03T05:27:20.940Z,7.05
2022-08-03T05:29:49.159Z,9.93
2022-08-03T05:32:18.271Z,13.38
2022-08-03T05:34:45.511Z,5.07
2022-08-03T05:37:12.586Z,2.95
2022-08-03T05:39:39.576Z,3.55
2022-08-03T05:42:06.615Z,2.75
2022-08-03T05:44:33.601Z,6.00
2022-08-03T05:47:00.579Z,7.38
2022-08-03T05:49:27.653Z,3.45
2022-08-03T05:52:00.113Z,11.30
2022-08-03T05:54:56.962Z,8.50
2022-08-03T05:57:26.299Z,12.93
2022-08-03T05:59:54.706Z,16.08
2022-08-03T06:02:28.609Z,16.05
2022-08-03T06:04:55.606Z,3.60
2022-08-03T06:07:22.800Z,7.55
2022-08-03T06:10:36.028Z,4.65
2022-08-03T06:12:37.293Z,12.52
2022-08-03T06:15:05.431Z,7.55
2022-08-03T06:17:37.275Z,7.03
2022-08-03T06:20:06.035Z,9.65
2022-08-03T06:22:33.335Z,8.90
2022-08-03T06:25:04.953Z,10.00
2022-08-03T06:27:37.165Z,21.65
2022-08-03T06:30:05.824Z,20.85
2022-08-03T06:32:33.768Z,21.52
2022-08-03T06:35:01.280Z,23.15
2022-08-03T06:37:28.935Z,15.35
2022-08-03T06:39:55.981Z,9.55
2022-08-03T06:42:23.375Z,4.88
2022-08-03T06:44:52.263Z,4.65
2022-08-03T06:47:19.194Z,3.15
2022-08-03T06:50:05.054Z,3.70
2022-08-03T06:52:37.859Z,3.95
2022-08-03T06:55:06.452Z,4.28
2022-08-03T06:57:33.783Z,4.07
2022-08-03T07:00:07.738Z,4.50
2022-08-03T07:02:39.751Z,2.58
2022-08-03T07:05:08.394Z,3.17
2022-08-03T07:07:35.574Z,3.28
2022-08-03T07:10:02.888Z,2.72
2022-08-03T07:12:30.719Z,2.83
2022-08-03T07:15:01.817Z,4.53
2022-08-03T07:17:31.715Z,4.87
2022-08-03T07:19:59.288Z,3.10
2022-08-03T07:22:26.465Z,3.92
2022-08-03T07:24:53.430Z,3.08
2022-08-03T07:27:20.438Z,2.40
2022-08-03T07:29:47.441Z,3.60
2022-08-03T07:32:14.686Z,2.40
2022-08-03T07:34:41.916Z,6.00
2022-08-03T07:37:08.978Z,5.60
2022-08-03T07:39:35.929Z,3.58
2022-08-03T07:42:02.945Z,3.67
2022-08-03T07:44:30.023Z,5.10
2022-08-03T07:46:57.785Z,2.75
2022-08-03T07:49:25.304Z,2.15
2022-08-03T07:52:12.308Z,2.42
2022-08-03T07:54:39.304Z,2.72
2022-08-03T07:57:06.367Z,2.13
2022-08-03T07:59:56.529Z,5.60
2022-08-03T08:02:22.301Z,3.60
2022-08-03T08:04:49.238Z,4.00
2022-08-03T08:07:16.296Z,2.05
2022-08-03T08:09:45.326Z,5.78
2022-08-03T08:12:15.623Z,2.90
2022-08-03T08:14:45.878Z,2.22
2022-08-03T08:17:13.582Z,2.65
2022-08-03T08:19:41.502Z,3.38
2022-08-03T08:22:18.470Z,3.83
2022-08-03T08:24:51.747Z,2.88
2022-08-03T08:27:19.468Z,2.22
2022-08-03T08:29:53.079Z,2.28
2022-08-03T08:32:23.803Z,2.13
2022-08-03T08:34:51.066Z,2.67
2022-08-03T08:37:18.061Z,3.03
2022-08-03T08:39:45.068Z,2.47
2022-08-03T08:42:12.188Z,2.10
2022-08-03T08:44:39.354Z,1.95
2022-08-03T08:47:08.236Z,2.67
2022-08-03T08:49:38.005Z,5.20
2022-08-03T08:52:25.464Z,3.80
2022-08-03T08:55:00.529Z,2.70
2022-08-03T08:57:44.690Z,2.90
2022-08-03T09:00:15.530Z,2.75
2022-08-03T09:02:44.399Z,1.92
2022-08-03T09:05:14.383Z,2.40
2022-08-03T09:07:42.833Z,2.42
2022-08-03T09:10:13.659Z,4.30
2022-08-03T09:12:45.971Z,2.50
2022-08-03T09:15:27.364Z,3.25
2022-08-03T09:17:57.541Z,2.58
2022-08-03T09:20:27.676Z,2.42
2022-08-03T09:22:57.919Z,2.10
2022-08-03T09:25:36.161Z,2.97
2022-08-03T09:28:11.267Z,5.10
2022-08-03T09:30:40.392Z,2.47
2022-08-03T09:33:12.456Z,2.10
2022-08-03T09:35:53.717Z,5.72
2022-08-03T09:38:24.338Z,3.97
2022-08-03T09:40:54.766Z,2.45
2022-08-03T09:43:25.993Z,2.22
2022-08-03T09:46:04.032Z,3.58
2022-08-03T09:48:32.564Z,5.13
2022-08-03T09:51:13.610Z,5.63
2022-08-03T09:53:58.819Z,2.63
2022-08-03T09:56:46.907Z,4.80
2022-08-03T09:59:23.413Z,2.75
2022-08-03T10:01:50.396Z,3.60
2022-08-03T10:04:17.547Z,2.65
2022-08-03T10:06:46.557Z,4.65
2022-08-03T10:09:16.764Z,3.70
2022-08-03T10:11:44.808Z,2.40
2022-08-03T10:14:19.734Z,4.20
2022-08-03T10:16:48.067Z,2.65
2022-08-03T10:19:16.188Z,3.17
2022-08-03T10:21:54.107Z,5.38
2022-08-03T10:24:27.401Z,2.83
2022-08-03T10:27:08.513Z,3.60
2022-08-03T10:29:39.011Z,3.63
2022-08-03T10:32:22.122Z,3.15
2022-08-03T10:34:52.226Z,5.80
2022-08-03T10:37:30.565Z,2.47
2022-08-03T10:40:00.180Z,3.30
2022-08-03T10:42:31.358Z,3.05
2022-08-03T10:45:06.341Z,5.18
2022-08-03T10:47:35.584Z,2.92
2022-08-03T10:50:03.563Z,4.10
2022-08-03T10:52:35.987Z,3.25
2022-08-03T10:55:49.891Z,2.45
2022-08-03T10:58:36.771Z,4.70
2022-08-03T11:01:08.497Z,2.40
2022-08-03T11:03:55.501Z,5.35
2022-08-03T11:06:25.529Z,2.92
2022-08-03T11:09:10.454Z,2.53
2022-08-03T11:11:39.143Z,3.53
2022-08-03T11:14:18.639Z,2.83
2022-08-03T11:16:52.840Z,2.85
2022-08-03T11:19:28.201Z,3.45
2022-08-03T11:21:57.049Z,3.72
2022-08-03T11:24:51.511Z,2.78
2022-08-03T11:27:23.578Z,3.20
2022-08-03T11:30:19.792Z,3.78
2022-08-03T11:32:48.584Z,6.72
2022-08-03T11:35:21.857Z,4.88
2022-08-03T11:38:04.418Z,3.58
2022-08-03T11:40:36.463Z,3.28
2022-08-03T11:43:22.823Z,2.75
2022-08-03T11:46:07.616Z,4.65
2022-08-03T11:48:43.200Z,5.15
2022-08-03T11:51:40.868Z,3.00
2022-08-03T11:54:08.033Z,3.42
2022-08-03T11:56:49.406Z,4.07
2022-08-03T11:59:21.726Z,4.13
2022-08-03T12:01:49.225Z,3.05
2022-08-03T12:04:16.589Z,2.75
2022-08-03T12:06:59.267Z,2.70
2022-08-03T12:12:00.982Z,3.10
2022-08-03T12:14:48.292Z,2.50
2022-08-03T12:17:17.516Z,5.22
2022-08-03T12:19:45.438Z,2.55
2022-08-03T12:22:12.514Z,5.75
2022-08-03T12:24:44.212Z,3.03
2022-08-03T12:27:24.088Z,3.35
2022-08-03T12:29:58.215Z,6.10
2022-08-03T12:32:27.364Z,2.58
2022-08-03T12:34:55.614Z,2.50
2022-08-03T12:37:23.710Z,4.85
2022-08-03T12:40:01.415Z,4.25
2022-08-03T12:42:35.054Z,4.63
2022-08-03T12:45:25.654Z,2.65
2022-08-03T12:48:01.035Z,2.50
2022-08-03T12:50:33.295Z,3.50
2022-08-03T12:53:01.855Z,2.78
2022-08-03T12:55:57.828Z,2.50
2022-08-03T12:58:35.678Z,3.88
2022-08-03T13:01:09.309Z,4.63
2022-08-03T13:03:45.765Z,3.58
2022-08-03T13:06:18.865Z,2.38
2022-08-03T13:08:48.037Z,3.67
2022-08-03T13:11:55.693Z,3.30
2022-08-03T13:14:20.746Z,2.33
2022-08-03T13:16:49.229Z,4.53
2022-08-03T13:19:16.395Z,3.60
2022-08-03T13:22:02.169Z,4.00
2022-08-03T13:24:33.232Z,6.68
2022-08-03T13:28:01.339Z,2.58
2022-08-03T13:29:48.135Z,3.00
2022-08-03T13:32:15.272Z,2.53
2022-08-03T13:34:42.344Z,2.40
2022-08-03T13:37:10.222Z,2.88
2022-08-03T13:39:59.923Z,2.85
2022-08-03T13:42:25.831Z,5.35
2022-08-03T13:44:52.770Z,5.80
2022-08-03T13:47:20.653Z,3.05
2022-08-03T13:50:00.477Z,3.58
2022-08-03T13:52:31.975Z,3.38
2022-08-03T13:54:59.848Z,2.35
2022-08-03T13:58:11.747Z,3.13
2022-08-03T14:00:16.137Z,3.97
2022-08-03T14:02:57.244Z,2.78
2022-08-03T14:05:32.187Z,2.42
2022-08-03T14:08:03.886Z,3.22
2022-08-03T14:10:33.158Z,2.45
2022-08-03T14:13:00.570Z,2.78
2022-08-03T14:15:28.687Z,2.70
2022-08-03T14:17:58.552Z,4.50
2022-08-03T14:20:38.701Z,4.78
2022-08-03T14:23:15.183Z,6.15
2022-08-03T14:25:49.938Z,3.05
2022-08-03T14:28:19.186Z,4.82
2022-08-03T14:30:47.903Z,3.15
2022-08-03T14:33:15.182Z,3.60
2022-08-03T14:35:42.637Z,2.33
2022-08-03T14:38:09.800Z,5.60
2022-08-03T14:40:36.899Z,5.22
2022-08-03T14:43:04.194Z,2.88
2022-08-03T14:45:31.255Z,3.05
2022-08-03T14:50:32.161Z,3.78
2022-08-03T14:50:51.309Z,3.88
2022-08-03T14:53:19.719Z,5.32
2022-08-03T14:55:51.219Z,4.63
2022-08-03T14:58:23.215Z,3.22
2022-08-03T15:00:51.344Z,2.85
2022-08-03T15:03:24.626Z,4.28
2022-08-03T15:05:56.188Z,2.60
2022-08-03T15:08:24.281Z,5.43
2022-08-03T15:10:51.978Z,9.93
2022-08-03T15:13:19.841Z,7.18
2022-08-03T15:15:47.815Z,4.07
2022-08-03T15:18:14.939Z,2.72
2022-08-03T15:20:46.707Z,2.78
2022-08-03T15:23:15.674Z,2.53
2022-08-03T15:26:29.165Z,5.30
2022-08-03T15:28:33.813Z,5.25
2022-08-03T15:31:01.310Z,3.20
2022-08-03T15:33:29.135Z,2.58
2022-08-03T15:35:56.614Z,3.95
2022-08-03T15:38:25.925Z,3.88
2022-08-03T15:40:56.947Z,5.20
2022-08-03T15:43:24.496Z,6.72
2022-08-03T15:46:26.456Z,2.92
2022-08-03T15:48:39.874Z,4.97
2022-08-03T15:51:07.518Z,3.65
2022-08-03T15:53:34.831Z,4.82
2022-08-03T15:56:08.001Z,4.82
2022-08-03T15:59:09.726Z,3.70
2022-08-03T16:01:26.468Z,2.92
2022-08-03T16:03:53.613Z,6.70
2022-08-03T16:06:34.882Z,4.18
2022-08-03T16:09:05.539Z,2.58
2022-08-03T16:11:51.416Z,3.88
2022-08-03T16:14:32.062Z,3.45
2022-08-03T16:17:00.484Z,4.90
2022-08-03T16:19:28.163Z,4.35
2022-08-03T16:21:55.100Z,3.55
2022-08-03T16:24:27.710Z,3.85
2022-08-03T16:26:55.871Z,3.00
2022-08-03T16:29:23.724Z,5.50
2022-08-03T16:31:51.803Z,4.38
2022-08-03T16:34:19.320Z,2.90
2022-08-03T16:36:46.288Z,5.05
2022-08-03T16:39:13.391Z,3.92
2022-08-03T16:41:53.835Z,2.20
2022-08-03T16:44:31.267Z,5.18
2022-08-03T16:46:59.413Z,3.85
2022-08-03T16:49:54.593Z,2.75
2022-08-03T16:52:13.756Z,2.88
2022-08-03T16:54:44.405Z,5.35
2022-08-03T16:57:56.351Z,2.78
2022-08-03T17:00:09.354Z,4.65
2022-08-03T17:02:36.940Z,7.93
2022-08-03T17:05:04.896Z,3.88
2022-08-03T17:07:32.003Z,5.10
2022-08-03T17:10:00.980Z,4.47
2022-08-03T17:12:28.303Z,4.72
2022-08-03T17:14:57.162Z,6.07
2022-08-03T17:17:30.172Z,3.58
2022-08-03T17:20:11.162Z,3.92
2022-08-03T17:22:49.851Z,2.20
2022-08-03T17:25:22.164Z,2.90
2022-08-03T17:28:49.348Z,2.40
2022-08-03T17:31:23.231Z,2.58
2022-08-03T17:34:00.914Z,4.57
2022-08-03T17:36:47.481Z,7.10
2022-08-03T17:39:23.531Z,4.10
2022-08-03T17:42:03.741Z,2.33
2022-08-03T17:44:41.480Z,2.97
2022-08-03T17:47:13.263Z,4.70
2022-08-03T17:49:46.569Z,3.03
2022-08-03T17:52:28.605Z,5.45
2022-08-03T17:55:57.534Z,5.32
2022-08-03T17:58:18.877Z,2.85
2022-08-03T18:02:00.761Z,3.03
2022-08-03T18:04:03.223Z,3.20
2022-08-03T18:10:05.823Z,4.07
2022-08-03T18:12:22.119Z,4.30
2022-08-03T18:15:00.769Z,4.85
2022-08-03T18:17:55.445Z,6.88
2022-08-03T18:20:34.049Z,5.82
2022-08-03T18:23:25.010Z,4.07
2022-08-03T18:26:01.500Z,5.22
2022-08-03T18:28:28.966Z,8.98
2022-08-03T18:30:58.151Z,7.78
2022-08-03T18:36:22.076Z,6.63
2022-08-03T18:39:01.654Z,3.03
2022-08-03T18:41:32.346Z,2.40
2022-08-03T18:44:46.437Z,8.57
2022-08-03T18:47:28.583Z,5.63
2022-08-03T18:50:21.979Z,5.30
2022-08-03T18:53:02.972Z,10.55
2022-08-03T18:55:33.440Z,14.10
2022-08-03T18:58:17.578Z,12.47
2022-08-03T19:00:57.066Z,13.00
2022-08-03T19:03:41.459Z,10.75
2022-08-03T19:06:19.956Z,8.05
2022-08-03T19:08:55.561Z,10.77
2022-08-03T19:12:14.560Z,14.48
2022-08-03T19:14:43.215Z,10.77
2022-08-03T19:17:12.039Z,14.20
2022-08-03T19:19:45.233Z,4.28
2022-08-03T19:22:15.917Z,12.30
2022-08-03T19:24:46.800Z,8.30
2022-08-03T19:27:15.908Z,6.13
2022-08-03T19:29:58.907Z,8.68
2022-08-03T19:32:32.643Z,9.88
2022-08-03T19:35:01.811Z,6.88
2022-08-03T19:37:38.675Z,11.23
2022-08-03T19:40:10.365Z,4.60
2022-08-03T19:42:42.949Z,7.07
2022-08-03T19:45:14.981Z,4.35
2022-08-03T19:47:47.496Z,8.23
2022-08-03T19:50:18.609Z,10.95
2022-08-03T19:52:49.703Z,10.63
2022-08-03T19:55:18.048Z,6.07
2022-08-03T19:57:49.409Z,9.82
2022-08-03T20:00:19.965Z,7.82
2022-08-03T20:02:53.565Z,7.55
2022-08-03T20:05:20.631Z,4.15
2022-08-03T20:07:48.609Z,7.45
2022-08-03T20:10:17.430Z,5.82
2022-08-03T20:12:46.423Z,3.85
2022-08-03T20:15:13.897Z,4.85
2022-08-03T20:17:54.616Z,3.65
2022-08-03T20:20:32.689Z,5.70
2022-08-03T20:23:02.932Z,6.72
2022-08-03T20:25:48.775Z,5.32
2022-08-03T20:28:50.180Z,6.60
2022-08-03T20:31:19.286Z,5.97
2022-08-03T20:33:49.366Z,3.95
2022-08-03T20:36:18.559Z,7.05
2022-08-03T20:38:47.899Z,7.75
2022-08-03T20:41:16.621Z,6.60
2022-08-03T20:43:44.302Z,3.72
2022-08-03T20:46:29.474Z,14.88
2022-08-03T20:48:59.041Z,9.52
2022-08-03T20:51:49.543Z,7.95
2022-08-03T20:54:28.818Z,6.97
2022-08-03T20:56:58.883Z,5.97
2022-08-03T20:59:35.029Z,9.30
2022-08-03T21:02:05.979Z,7.22
2022-08-03T21:04:32.995Z,4.85
2022-08-03T21:07:14.734Z,7.68
2022-08-03T21:09:58.259Z,4.78
2022-08-03T21:12:50.748Z,5.28
2022-08-03T21:12:58.400Z,3.72
2022-08-03T21:16:11.321Z,6.60
2022-08-03T21:18:13.347Z,6.30
2022-08-03T21:20:44.235Z,4.97
2022-08-03T21:23:12.768Z,3.17
2022-08-03T21:26:02.455Z,5.63
2022-08-03T21:28:29.842Z,4.78
2022-08-03T21:30:59.146Z,3.50
2022-08-03T21:33:27.858Z,4.13
2022-08-03T21:35:54.956Z,11.70
2022-08-03T21:38:29.802Z,3.25
2022-08-03T21:40:57.405Z,9.48
2022-08-03T21:43:24.674Z,5.38
2022-08-03T21:46:04.166Z,6.05
2022-08-03T21:48:41.714Z,4.57
2022-08-03T21:51:12.188Z,8.68
2022-08-03T21:54:02.626Z,6.10
2022-08-03T21:56:29.503Z,4.80
2022-08-03T21:59:05.038Z,7.90
2022-08-03T22:01:35.450Z,9.85
2022-08-03T22:04:09.398Z,6.28
2022-08-03T22:06:44.924Z,7.18
2022-08-03T22:09:12.135Z,4.60
2022-08-03T22:11:39.702Z,4.45
2022-08-03T22:14:07.191Z,6.40
2022-08-03T22:16:34.558Z,8.52
2022-08-03T22:19:01.627Z,7.00
2022-08-03T22:21:36.092Z,6.05
2022-08-03T22:24:05.832Z,5.80
2022-08-03T22:26:35.375Z,3.60
2022-08-03T22:29:08.087Z,5.55
2022-08-03T22:31:58.896Z,6.68
2022-08-03T22:34:27.083Z,4.65
2022-08-03T22:37:00.190Z,8.02
2022-08-03T22:39:29.895Z,4.40
2022-08-03T22:41:59.019Z,6.07
2022-08-03T22:44:27.539Z,5.90
2022-08-03T22:46:55.916Z,5.75
2022-08-03T22:49:23.013Z,5.13
2022-08-03T22:51:52.119Z,7.18
2022-08-03T22:54:19.521Z,5.72
2022-08-03T22:56:47.012Z,5.28
2022-08-03T22:59:40.976Z,6.15
2022-08-03T23:02:20.097Z,6.85
2022-08-03T23:04:52.524Z,3.75
2022-08-03T23:07:30.182Z,6.88
2022-08-03T23:09:58.134Z,5.13
2022-08-03T23:12:26.875Z,3.50
2022-08-03T23:14:56.418Z,5.43
2022-08-03T23:17:26.354Z,3.28
2022-08-03T23:19:55.142Z,6.47
2022-08-03T23:22:29.358Z,6.15
2022-08-03T23:24:58.928Z,3.97
2022-08-03T23:27:27.834Z,5.47
2022-08-03T23:29:57.870Z,4.07
2022-08-03T23:32:26.657Z,5.88
2022-08-03T23:35:18.270Z,8.50
2022-08-03T23:38:04.450Z,4.65
2022-08-03T23:40:34.013Z,4.82
2022-08-03T23:43:02.648Z,6.97
2022-08-03T23:45:31.336Z,6.30
2022-08-03T23:47:58.336Z,4.22
2022-08-03T23:50:30.953Z,7.03
2022-08-03T23:53:17.356Z,7.20
2022-08-03T23:56:04.016Z,5.50
2022-08-03T23:58:49.630Z,4.72
